sensor_id;sensor_type;location;lat;lon;timestamp;pressure;altitude;pressure_sealevel;temperature;humidity
45541;BME280;31265;49.680;8.608;2023-09-18T00:01:00;99774.06;;;21.41;100.00
45541;BME280;31265;49.680;8.608;2023-09-18T00:03:28;99764.88;;;21.21;100.00
45541;BME280;31265;49.680;8.608;2023-09-18T00:05:58;99765.59;;;21.01;100.00
45541;BME280;31265;49.680;8.608;2023-09-18T00:08:27;99777.75;;;20.86;100.00
45541;BME280;31265;49.680;8.608;2023-09-18T00:10:55;99773.03;;;20.73;100.00
45541;BME280;31265;49.680;8.608;2023-09-18T00:13:24;99764.22;;;20.63;100.00
45541;BME280;31265;49.680;8.608;2023-09-18T00:15:54;99763.25;;;20.56;100.00
45541;BME280;31265;49.680;8.608;2023-09-18T00:18:23;99755.28;;;20.50;100.00
45541;BME280;31265;49.680;8.608;2023-09-18T00:20:52;99745.88;;;20.44;100.00
45541;BME280;31265;49.680;8.608;2023-09-18T00:23:22;99740.88;;;20.42;100.00
45541;BME280;31265;49.680;8.608;2023-09-18T00:25:51;99732.28;;;20.38;100.00
45541;BME280;31265;49.680;8.608;2023-09-18T00:28:19;99733.56;;;20.35;100.00
45541;BME280;31265;49.680;8.608;2023-09-18T00:30:50;99726.91;;;20.26;100.00
45541;BME280;31265;49.680;8.608;2023-09-18T00:33:18;99725.88;;;20.17;100.00
45541;BME280;31265;49.680;8.608;2023-09-18T00:35:47;99730.63;;;20.13;100.00
45541;BME280;31265;49.680;8.608;2023-09-18T00:38:16;99725.47;;;20.07;100.00
45541;BME280;31265;49.680;8.608;2023-09-18T00:40:47;99711.00;;;19.97;100.00
45541;BME280;31265;49.680;8.608;2023-09-18T00:43:15;99707.97;;;19.91;100.00
45541;BME280;31265;49.680;8.608;2023-09-18T00:45:47;99708.44;;;19.85;100.00
45541;BME280;31265;49.680;8.608;2023-09-18T00:48:16;99689.22;;;19.80;100.00
45541;BME280;31265;49.680;8.608;2023-09-18T00:50:45;99685.38;;;19.71;100.00
45541;BME280;31265;49.680;8.608;2023-09-18T00:53:19;99704.72;;;19.63;100.00
45541;BME280;31265;49.680;8.608;2023-09-18T00:55:50;99692.66;;;19.60;100.00
45541;BME280;31265;49.680;8.608;2023-09-18T00:58:20;99689.84;;;19.60;100.00
45541;BME280;31265;49.680;8.608;2023-09-18T01:00:49;99696.75;;;19.57;100.00
45541;BME280;31265;49.680;8.608;2023-09-18T01:03:19;99688.94;;;19.55;100.00
45541;BME280;31265;49.680;8.608;2023-09-18T01:05:50;99691.69;;;19.53;100.00
45541;BME280;31265;49.680;8.608;2023-09-18T01:08:20;99688.00;;;19.49;100.00
45541;BME280;31265;49.680;8.608;2023-09-18T01:10:56;99684.28;;;19.44;100.00
45541;BME280;31265;49.680;8.608;2023-09-18T01:13:30;99692.72;;;19.44;100.00
45541;BME280;31265;49.680;8.608;2023-09-18T01:16:04;99691.34;;;19.63;100.00
45541;BME280;31265;49.680;8.608;2023-09-18T01:18:36;99694.38;;;19.67;100.00
45541;BME280;31265;49.680;8.608;2023-09-18T01:21:05;99688.75;;;19.67;100.00
45541;BME280;31265;49.680;8.608;2023-09-18T01:23:34;99686.22;;;19.58;100.00
45541;BME280;31265;49.680;8.608;2023-09-18T01:26:03;99687.41;;;19.52;100.00
45541;BME280;31265;49.680;8.608;2023-09-18T01:28:31;99676.09;;;19.50;100.00
45541;BME280;31265;49.680;8.608;2023-09-18T01:31:00;99684.59;;;19.52;100.00
45541;BME280;31265;49.680;8.608;2023-09-18T01:33:29;99682.91;;;19.63;100.00
45541;BME280;31265;49.680;8.608;2023-09-18T01:35:57;99694.84;;;19.80;100.00
45541;BME280;31265;49.680;8.608;2023-09-18T01:38:28;99711.25;;;20.03;100.00
45541;BME280;31265;49.680;8.608;2023-09-18T01:40:58;99719.69;;;20.21;100.00
45541;BME280;31265;49.680;8.608;2023-09-18T01:43:27;99690.56;;;20.14;100.00
45541;BME280;31265;49.680;8.608;2023-09-18T01:45:57;99680.59;;;20.11;100.00
45541;BME280;31265;49.680;8.608;2023-09-18T01:48:28;99677.59;;;20.07;100.00
45541;BME280;31265;49.680;8.608;2023-09-18T01:50:58;99698.91;;;20.12;100.00
45541;BME280;31265;49.680;8.608;2023-09-18T01:53:26;99693.63;;;20.21;100.00
45541;BME280;31265;49.680;8.608;2023-09-18T01:55:55;99706.69;;;20.32;100.00
45541;BME280;31265;49.680;8.608;2023-09-18T01:58:25;99731.34;;;20.51;100.00
45541;BME280;31265;49.680;8.608;2023-09-18T02:00:54;99813.66;;;20.66;100.00
45541;BME280;31265;49.680;8.608;2023-09-18T02:03:25;99900.44;;;20.69;100.00
45541;BME280;31265;49.680;8.608;2023-09-18T02:06:13;99856.22;;;20.74;100.00
45541;BME280;31265;49.680;8.608;2023-09-18T02:08:42;99871.44;;;20.49;100.00
45541;BME280;31265;49.680;8.608;2023-09-18T02:11:10;99856.78;;;20.16;100.00
45541;BME280;31265;49.680;8.608;2023-09-18T02:13:40;99850.25;;;19.94;100.00
45541;BME280;31265;49.680;8.608;2023-09-18T02:16:09;99846.13;;;19.79;100.00
45541;BME280;31265;49.680;8.608;2023-09-18T02:18:37;99859.94;;;19.57;100.00
45541;BME280;31265;49.680;8.608;2023-09-18T02:21:07;99800.09;;;19.39;100.00
45541;BME280;31265;49.680;8.608;2023-09-18T02:23:35;99800.19;;;19.25;100.00
45541;BME280;31265;49.680;8.608;2023-09-18T02:26:04;99776.50;;;19.30;100.00
45541;BME280;31265;49.680;8.608;2023-09-18T02:28:33;99767.25;;;19.27;100.00
45541;BME280;31265;49.680;8.608;2023-09-18T02:31:02;99767.25;;;19.27;100.00
45541;BME280;31265;49.680;8.608;2023-09-18T02:33:31;99758.34;;;19.33;100.00
45541;BME280;31265;49.680;8.608;2023-09-18T02:36:01;99764.69;;;19.33;100.00
45541;BME280;31265;49.680;8.608;2023-09-18T02:38:29;99765.44;;;19.34;100.00
45541;BME280;31265;49.680;8.608;2023-09-18T02:40:57;99774.50;;;19.32;100.00
45541;BME280;31265;49.680;8.608;2023-09-18T02:43:26;99772.16;;;19.27;100.00
45541;BME280;31265;49.680;8.608;2023-09-18T02:45:55;99772.88;;;19.27;100.00
45541;BME280;31265;49.680;8.608;2023-09-18T02:48:25;99767.81;;;19.24;100.00
45541;BME280;31265;49.680;8.608;2023-09-18T02:50:54;99768.13;;;19.14;100.00
45541;BME280;31265;49.680;8.608;2023-09-18T02:53:24;99768.41;;;19.04;100.00
45541;BME280;31265;49.680;8.608;2023-09-18T02:55:54;99770.22;;;18.98;100.00
45541;BME280;31265;49.680;8.608;2023-09-18T02:58:22;99750.44;;;18.96;100.00
45541;BME280;31265;49.680;8.608;2023-09-18T03:00:56;99757.34;;;18.93;100.00
45541;BME280;31265;49.680;8.608;2023-09-18T03:03:26;99764.25;;;18.89;100.00
45541;BME280;31265;49.680;8.608;2023-09-18T03:06:00;99735.22;;;18.85;100.00
45541;BME280;31265;49.680;8.608;2023-09-18T03:08:29;99740.84;;;18.85;100.00
45541;BME280;31265;49.680;8.608;2023-09-18T03:10:58;99724.69;;;18.85;100.00
45541;BME280;31265;49.680;8.608;2023-09-18T03:13:28;99719.91;;;18.88;100.00
45541;BME280;31265;49.680;8.608;2023-09-18T03:15:56;99717.09;;;18.88;100.00
45541;BME280;31265;49.680;8.608;2023-09-18T03:18:28;99707.28;;;18.89;100.00
45541;BME280;31265;49.680;8.608;2023-09-18T03:20:56;99698.78;;;18.87;100.00
45541;BME280;31265;49.680;8.608;2023-09-18T03:23:25;99695.22;;;18.86;100.00
45541;BME280;31265;49.680;8.608;2023-09-18T03:25:55;99705.13;;;18.87;100.00
45541;BME280;31265;49.680;8.608;2023-09-18T03:28:24;99703.75;;;18.88;100.00
45541;BME280;31265;49.680;8.608;2023-09-18T03:30:53;99710.75;;;18.87;100.00
45541;BME280;31265;49.680;8.608;2023-09-18T03:33:23;99713.66;;;18.89;100.00
45541;BME280;31265;49.680;8.608;2023-09-18T03:35:53;99717.91;;;18.90;100.00
45541;BME280;31265;49.680;8.608;2023-09-18T03:38:27;99725.03;;;18.94;100.00
45541;BME280;31265;49.680;8.608;2023-09-18T03:40:59;99723.22;;;19.00;100.00
45541;BME280;31265;49.680;8.608;2023-09-18T03:43:28;99705.19;;;19.05;100.00
45541;BME280;31265;49.680;8.608;2023-09-18T03:46:03;99694.19;;;19.11;100.00
45541;BME280;31265;49.680;8.608;2023-09-18T03:48:34;99691.53;;;19.16;100.00
45541;BME280;31265;49.680;8.608;2023-09-18T03:51:06;99688.09;;;19.17;100.00
45541;BME280;31265;49.680;8.608;2023-09-18T03:53:35;99707.94;;;19.21;100.00
45541;BME280;31265;49.680;8.608;2023-09-18T03:56:03;99712.94;;;19.23;100.00
45541;BME280;31265;49.680;8.608;2023-09-18T03:58:32;99709.72;;;19.30;100.00
45541;BME280;31265;49.680;8.608;2023-09-18T04:01:03;99725.88;;;19.30;100.00
45541;BME280;31265;49.680;8.608;2023-09-18T04:03:32;99725.28;;;19.49;100.00
45541;BME280;31265;49.680;8.608;2023-09-18T04:06:00;99737.22;;;19.66;100.00
45541;BME280;31265;49.680;8.608;2023-09-18T04:08:32;99743.56;;;19.66;100.00
45541;BME280;31265;49.680;8.608;2023-09-18T04:11:00;99745.84;;;19.88;100.00
45541;BME280;31265;49.680;8.608;2023-09-18T04:13:31;99762.97;;;19.94;100.00
45541;BME280;31265;49.680;8.608;2023-09-18T04:16:01;99765.97;;;19.98;100.00
45541;BME280;31265;49.680;8.608;2023-09-18T04:18:31;99768.44;;;20.08;100.00
45541;BME280;31265;49.680;8.608;2023-09-18T04:21:00;99760.41;;;20.18;100.00
45541;BME280;31265;49.680;8.608;2023-09-18T04:23:28;99771.34;;;20.28;100.00
45541;BME280;31265;49.680;8.608;2023-09-18T04:25:59;99760.72;;;20.26;100.00
45541;BME280;31265;49.680;8.608;2023-09-18T04:28:29;99737.28;;;20.22;100.00
45541;BME280;31265;49.680;8.608;2023-09-18T04:30:58;99754.03;;;20.17;100.00
45541;BME280;31265;49.680;8.608;2023-09-18T04:33:27;99753.56;;;20.05;100.00
45541;BME280;31265;49.680;8.608;2023-09-18T04:35:57;99727.97;;;19.99;100.00
45541;BME280;31265;49.680;8.608;2023-09-18T04:38:25;99715.03;;;19.92;100.00
45541;BME280;31265;49.680;8.608;2023-09-18T04:40:59;99710.69;;;19.89;100.00
45541;BME280;31265;49.680;8.608;2023-09-18T04:43:29;99708.53;;;19.69;100.00
45541;BME280;31265;49.680;8.608;2023-09-18T04:45:59;99708.00;;;19.57;100.00
45541;BME280;31265;49.680;8.608;2023-09-18T04:48:29;99680.19;;;19.47;100.00
45541;BME280;31265;49.680;8.608;2023-09-18T04:50:59;99678.66;;;19.44;100.00
45541;BME280;31265;49.680;8.608;2023-09-18T04:53:27;99670.94;;;19.45;100.00
45541;BME280;31265;49.680;8.608;2023-09-18T04:55:56;99683.94;;;19.36;100.00
45541;BME280;31265;49.680;8.608;2023-09-18T04:58:27;99678.31;;;19.36;100.00
45541;BME280;31265;49.680;8.608;2023-09-18T05:00:56;99678.72;;;19.28;100.00
45541;BME280;31265;49.680;8.608;2023-09-18T05:03:26;99694.16;;;19.27;100.00
45541;BME280;31265;49.680;8.608;2023-09-18T05:05:57;99685.00;;;19.27;100.00
45541;BME280;31265;49.680;8.608;2023-09-18T05:08:25;99675.66;;;19.22;100.00
45541;BME280;31265;49.680;8.608;2023-09-18T05:10:54;99679.09;;;19.21;100.00
45541;BME280;31265;49.680;8.608;2023-09-18T05:13:24;99668.34;;;19.15;100.00
45541;BME280;31265;49.680;8.608;2023-09-18T05:15:55;99683.75;;;19.14;100.00
45541;BME280;31265;49.680;8.608;2023-09-18T05:18:25;99699.97;;;19.16;100.00
45541;BME280;31265;49.680;8.608;2023-09-18T05:20:54;99698.88;;;19.23;100.00
45541;BME280;31265;49.680;8.608;2023-09-18T05:23:22;99703.06;;;19.22;100.00
45541;BME280;31265;49.680;8.608;2023-09-18T05:25:51;99705.22;;;19.23;100.00
45541;BME280;31265;49.680;8.608;2023-09-18T05:28:20;99715.75;;;19.23;100.00
45541;BME280;31265;49.680;8.608;2023-09-18T05:30:49;99730.38;;;19.19;100.00
45541;BME280;31265;49.680;8.608;2023-09-18T05:33:19;99733.69;;;19.31;100.00
45541;BME280;31265;49.680;8.608;2023-09-18T05:35:47;99746.38;;;19.32;100.00
45541;BME280;31265;49.680;8.608;2023-09-18T05:38:16;99769.22;;;19.41;100.00
45541;BME280;31265;49.680;8.608;2023-09-18T05:40:45;99780.41;;;19.39;100.00
45541;BME280;31265;49.680;8.608;2023-09-18T05:43:14;99782.47;;;19.38;100.00
45541;BME280;31265;49.680;8.608;2023-09-18T05:45:42;99784.22;;;19.29;100.00
45541;BME280;31265;49.680;8.608;2023-09-18T05:48:11;99783.22;;;19.23;100.00
45541;BME280;31265;49.680;8.608;2023-09-18T05:50:41;99773.00;;;19.13;100.00
45541;BME280;31265;49.680;8.608;2023-09-18T05:53:09;99780.56;;;19.09;100.00
45541;BME280;31265;49.680;8.608;2023-09-18T05:55:38;99780.56;;;19.09;100.00
45541;BME280;31265;49.680;8.608;2023-09-18T05:58:07;99789.13;;;19.13;100.00
45541;BME280;31265;49.680;8.608;2023-09-18T06:00:35;99773.66;;;19.12;100.00
45541;BME280;31265;49.680;8.608;2023-09-18T06:03:04;99758.78;;;19.09;100.00
45541;BME280;31265;49.680;8.608;2023-09-18T06:05:34;99754.41;;;19.06;100.00
45541;BME280;31265;49.680;8.608;2023-09-18T06:08:04;99745.91;;;19.04;100.00
45541;BME280;31265;49.680;8.608;2023-09-18T06:10:34;99735.38;;;19.05;100.00
45541;BME280;31265;49.680;8.608;2023-09-18T06:13:02;99730.09;;;19.13;100.00
45541;BME280;31265;49.680;8.608;2023-09-18T06:15:33;99722.84;;;19.08;100.00
45541;BME280;31265;49.680;8.608;2023-09-18T06:18:03;99749.88;;;19.15;100.00
45541;BME280;31265;49.680;8.608;2023-09-18T06:20:34;99774.78;;;19.23;100.00
45541;BME280;31265;49.680;8.608;2023-09-18T06:23:04;99760.09;;;19.24;100.00
45541;BME280;31265;49.680;8.608;2023-09-18T06:25:32;99748.16;;;19.24;100.00
45541;BME280;31265;49.680;8.608;2023-09-18T06:28:01;99768.88;;;19.32;100.00
45541;BME280;31265;49.680;8.608;2023-09-18T06:30:31;99775.41;;;19.37;100.00
45541;BME280;31265;49.680;8.608;2023-09-18T06:33:00;99781.47;;;19.47;100.00
45541;BME280;31265;49.680;8.608;2023-09-18T06:35:31;99771.00;;;19.50;100.00
45541;BME280;31265;49.680;8.608;2023-09-18T06:37:59;99783.06;;;19.52;100.00
45541;BME280;31265;49.680;8.608;2023-09-18T06:40:29;99788.50;;;19.64;100.00
45541;BME280;31265;49.680;8.608;2023-09-18T06:43:00;99789.13;;;19.63;100.00
45541;BME280;31265;49.680;8.608;2023-09-18T06:45:29;99808.72;;;19.76;100.00
45541;BME280;31265;49.680;8.608;2023-09-18T06:47:59;99819.91;;;19.74;100.00
45541;BME280;31265;49.680;8.608;2023-09-18T06:50:28;99830.84;;;19.84;100.00
45541;BME280;31265;49.680;8.608;2023-09-18T06:52:57;99830.53;;;19.76;100.00
45541;BME280;31265;49.680;8.608;2023-09-18T06:55:26;99832.13;;;19.81;100.00
45541;BME280;31265;49.680;8.608;2023-09-18T06:57:55;99824.16;;;19.75;100.00
45541;BME280;31265;49.680;8.608;2023-09-18T07:00:24;99829.31;;;19.81;100.00
45541;BME280;31265;49.680;8.608;2023-09-18T07:02:53;99830.28;;;19.88;100.00
45541;BME280;31265;49.680;8.608;2023-09-18T07:05:23;99832.25;;;20.01;100.00
45541;BME280;31265;49.680;8.608;2023-09-18T07:07:52;99833.66;;;19.84;100.00
45541;BME280;31265;49.680;8.608;2023-09-18T07:10:21;99827.47;;;19.88;100.00
45541;BME280;31265;49.680;8.608;2023-09-18T07:12:49;99839.00;;;19.94;100.00
45541;BME280;31265;49.680;8.608;2023-09-18T07:15:21;99842.75;;;19.83;100.00
45541;BME280;31265;49.680;8.608;2023-09-18T07:17:51;99842.81;;;19.85;100.00
45541;BME280;31265;49.680;8.608;2023-09-18T07:20:19;99845.09;;;19.88;100.00
45541;BME280;31265;49.680;8.608;2023-09-18T07:22:50;99849.34;;;19.89;100.00
45541;BME280;31265;49.680;8.608;2023-09-18T07:25:19;99851.88;;;19.99;100.00
45541;BME280;31265;49.680;8.608;2023-09-18T07:27:48;99851.16;;;19.98;100.00
45541;BME280;31265;49.680;8.608;2023-09-18T07:30:16;99863.63;;;20.11;100.00
45541;BME280;31265;49.680;8.608;2023-09-18T07:32:48;99849.06;;;20.17;100.00
45541;BME280;31265;49.680;8.608;2023-09-18T07:35:16;99859.78;;;20.21;100.00
45541;BME280;31265;49.680;8.608;2023-09-18T07:37:47;99852.13;;;20.23;100.00
45541;BME280;31265;49.680;8.608;2023-09-18T07:40:16;99865.97;;;20.35;100.00
45541;BME280;31265;49.680;8.608;2023-09-18T07:42:44;99855.97;;;20.50;100.00
45541;BME280;31265;49.680;8.608;2023-09-18T07:45:13;99863.50;;;20.61;100.00
45541;BME280;31265;49.680;8.608;2023-09-18T07:47:42;99864.06;;;20.57;100.00
45541;BME280;31265;49.680;8.608;2023-09-18T07:50:12;99854.47;;;20.65;100.00
45541;BME280;31265;49.680;8.608;2023-09-18T07:52:43;99861.41;;;20.61;100.00
45541;BME280;31265;49.680;8.608;2023-09-18T07:55:12;99866.44;;;20.47;100.00
45541;BME280;31265;49.680;8.608;2023-09-18T07:57:40;99868.31;;;20.58;100.00
45541;BME280;31265;49.680;8.608;2023-09-18T08:00:12;99877.56;;;20.43;100.00
45541;BME280;31265;49.680;8.608;2023-09-18T08:02:43;99887.78;;;20.52;100.00
45541;BME280;31265;49.680;8.608;2023-09-18T08:05:12;99892.88;;;20.74;100.00
45541;BME280;31265;49.680;8.608;2023-09-18T08:07:45;99888.63;;;20.73;100.00
45541;BME280;31265;49.680;8.608;2023-09-18T08:10:16;99885.88;;;20.75;100.00
45541;BME280;31265;49.680;8.608;2023-09-18T08:12:45;99891.66;;;20.79;100.00
45541;BME280;31265;49.680;8.608;2023-09-18T08:15:15;99894.41;;;20.77;100.00
45541;BME280;31265;49.680;8.608;2023-09-18T08:17:44;99893.41;;;20.88;100.00
45541;BME280;31265;49.680;8.608;2023-09-18T08:20:15;99906.13;;;20.89;100.00
45541;BME280;31265;49.680;8.608;2023-09-18T08:22:44;99901.53;;;20.98;100.00
45541;BME280;31265;49.680;8.608;2023-09-18T08:25:14;99897.63;;;20.87;100.00
45541;BME280;31265;49.680;8.608;2023-09-18T08:27:42;99896.31;;;20.90;100.00
45541;BME280;31265;49.680;8.608;2023-09-18T08:30:13;99892.44;;;20.99;100.00
45541;BME280;31265;49.680;8.608;2023-09-18T08:32:42;99885.03;;;20.90;100.00
45541;BME280;31265;49.680;8.608;2023-09-18T08:35:11;99889.03;;;21.03;100.00
45541;BME280;31265;49.680;8.608;2023-09-18T08:37:41;99882.69;;;21.02;100.00
45541;BME280;31265;49.680;8.608;2023-09-18T08:40:11;99888.09;;;20.96;100.00
45541;BME280;31265;49.680;8.608;2023-09-18T08:42:45;99885.78;;;21.11;100.00
45541;BME280;31265;49.680;8.608;2023-09-18T08:45:19;99884.72;;;21.20;100.00
45541;BME280;31265;49.680;8.608;2023-09-18T08:47:51;99869.84;;;21.37;100.00
45541;BME280;31265;49.680;8.608;2023-09-18T08:50:20;99868.69;;;21.24;100.00
45541;BME280;31265;49.680;8.608;2023-09-18T08:52:51;99877.41;;;21.13;100.00
45541;BME280;31265;49.680;8.608;2023-09-18T08:55:21;99862.66;;;21.14;100.00
45541;BME280;31265;49.680;8.608;2023-09-18T08:57:49;99857.31;;;21.02;100.00
45541;BME280;31265;49.680;8.608;2023-09-18T09:00:19;99846.91;;;21.27;100.00
45541;BME280;31265;49.680;8.608;2023-09-18T09:02:48;99844.88;;;21.30;100.00
45541;BME280;31265;49.680;8.608;2023-09-18T09:05:18;99848.78;;;21.20;100.00
45541;BME280;31265;49.680;8.608;2023-09-18T09:07:48;99852.56;;;21.27;100.00
45541;BME280;31265;49.680;8.608;2023-09-18T09:10:18;99864.72;;;21.32;100.00
45541;BME280;31265;49.680;8.608;2023-09-18T09:12:50;99865.88;;;21.24;100.00
45541;BME280;31265;49.680;8.608;2023-09-18T09:15:21;99858.78;;;21.43;100.00
45541;BME280;31265;49.680;8.608;2023-09-18T09:17:51;99860.06;;;21.60;100.00
45541;BME280;31265;49.680;8.608;2023-09-18T09:20:21;99864.94;;;21.58;100.00
45541;BME280;31265;49.680;8.608;2023-09-18T09:22:49;99856.31;;;21.54;100.00
45541;BME280;31265;49.680;8.608;2023-09-18T09:25:26;99858.31;;;21.91;100.00
45541;BME280;31265;49.680;8.608;2023-09-18T09:27:55;99871.75;;;21.93;100.00
45541;BME280;31265;49.680;8.608;2023-09-18T09:30:25;99881.00;;;21.95;100.00
45541;BME280;31265;49.680;8.608;2023-09-18T09:32:55;99893.44;;;22.08;100.00
45541;BME280;31265;49.680;8.608;2023-09-18T09:35:26;99906.47;;;22.17;100.00
45541;BME280;31265;49.680;8.608;2023-09-18T09:38:00;99905.75;;;22.17;100.00
45541;BME280;31265;49.680;8.608;2023-09-18T09:40:30;99911.28;;;21.93;100.00
45541;BME280;31265;49.680;8.608;2023-09-18T09:42:59;99907.66;;;21.90;100.00
45541;BME280;31265;49.680;8.608;2023-09-18T09:45:32;99909.31;;;21.97;100.00
45541;BME280;31265;49.680;8.608;2023-09-18T09:48:05;99900.09;;;21.75;100.00
45541;BME280;31265;49.680;8.608;2023-09-18T09:50:44;99898.56;;;21.92;100.00
45541;BME280;31265;49.680;8.608;2023-09-18T09:53:16;99911.66;;;21.83;100.00
45541;BME280;31265;49.680;8.608;2023-09-18T09:55:54;99905.09;;;21.76;100.00
45541;BME280;31265;49.680;8.608;2023-09-18T09:58:26;99903.63;;;21.75;100.00
45541;BME280;31265;49.680;8.608;2023-09-18T10:01:02;99896.13;;;21.62;100.00
45541;BME280;31265;49.680;8.608;2023-09-18T10:03:35;99900.28;;;21.21;100.00
45541;BME280;31265;49.680;8.608;2023-09-18T10:06:05;99892.81;;;21.10;100.00
45541;BME280;31265;49.680;8.608;2023-09-18T10:08:36;99889.16;;;21.25;100.00
45541;BME280;31265;49.680;8.608;2023-09-18T10:11:09;99890.59;;;21.26;100.00
45541;BME280;31265;49.680;8.608;2023-09-18T10:13:47;99901.78;;;21.42;100.00
45541;BME280;31265;49.680;8.608;2023-09-18T10:16:17;99896.41;;;21.70;100.00
45541;BME280;31265;49.680;8.608;2023-09-18T10:18:56;99882.38;;;21.72;100.00
45541;BME280;31265;49.680;8.608;2023-09-18T10:21:33;99886.53;;;22.13;100.00
45541;BME280;31265;49.680;8.608;2023-09-18T10:24:11;99883.75;;;22.35;100.00
45541;BME280;31265;49.680;8.608;2023-09-18T10:26:48;99895.41;;;22.69;100.00
45541;BME280;31265;49.680;8.608;2023-09-18T10:29:19;99882.88;;;22.52;100.00
45541;BME280;31265;49.680;8.608;2023-09-18T10:31:50;99887.06;;;22.73;100.00
45541;BME280;31265;49.680;8.608;2023-09-18T10:34:19;99890.06;;;22.56;100.00
45541;BME280;31265;49.680;8.608;2023-09-18T10:36:49;99882.63;;;22.22;100.00
45541;BME280;31265;49.680;8.608;2023-09-18T10:39:18;99882.63;;;22.44;100.00
45541;BME280;31265;49.680;8.608;2023-09-18T10:41:53;99874.38;;;22.28;100.00
45541;BME280;31265;49.680;8.608;2023-09-18T10:44:23;99873.59;;;22.50;100.00
45541;BME280;31265;49.680;8.608;2023-09-18T10:46:52;99875.44;;;22.63;100.00
45541;BME280;31265;49.680;8.608;2023-09-18T10:49:21;99887.38;;;22.84;100.00
45541;BME280;31265;49.680;8.608;2023-09-18T10:51:52;99887.19;;;22.78;100.00
45541;BME280;31265;49.680;8.608;2023-09-18T10:54:24;99887.13;;;22.75;100.00
45541;BME280;31265;49.680;8.608;2023-09-18T10:56:55;99886.03;;;22.87;100.00
45541;BME280;31265;49.680;8.608;2023-09-18T10:59:24;99894.13;;;23.21;100.00
45541;BME280;31265;49.680;8.608;2023-09-18T11:01:53;99889.47;;;23.57;100.00
45541;BME280;31265;49.680;8.608;2023-09-18T11:04:23;99885.06;;;24.04;100.00
45541;BME280;31265;49.680;8.608;2023-09-18T11:07:01;99882.53;;;24.17;100.00
45541;BME280;31265;49.680;8.608;2023-09-18T11:09:41;99870.63;;;24.53;100.00
45541;BME280;31265;49.680;8.608;2023-09-18T11:12:12;99872.69;;;24.82;100.00
45541;BME280;31265;49.680;8.608;2023-09-18T11:14:47;99880.25;;;25.04;100.00
45541;BME280;31265;49.680;8.608;2023-09-18T11:17:34;99880.22;;;25.36;100.00
45541;BME280;31265;49.680;8.608;2023-09-18T11:20:05;99884.00;;;25.13;100.00
45541;BME280;31265;49.680;8.608;2023-09-18T11:22:37;99887.03;;;25.59;100.00
45541;BME280;31265;49.680;8.608;2023-09-18T11:29:41;99877.38;;;25.02;100.00
45541;BME280;31265;49.680;8.608;2023-09-18T11:32:10;99877.88;;;24.60;100.00
45541;BME280;31265;49.680;8.608;2023-09-18T11:34:39;99880.66;;;24.58;100.00
45541;BME280;31265;49.680;8.608;2023-09-18T11:37:19;99876.84;;;24.17;100.00
45541;BME280;31265;49.680;8.608;2023-09-18T11:39:48;99873.41;;;23.92;100.00
45541;BME280;31265;49.680;8.608;2023-09-18T11:42:18;99880.00;;;23.73;100.00
45541;BME280;31265;49.680;8.608;2023-09-18T11:44:50;99881.47;;;24.62;100.00
45541;BME280;31265;49.680;8.608;2023-09-18T11:47:20;99879.13;;;24.85;100.00
45541;BME280;31265;49.680;8.608;2023-09-18T11:49:52;99879.63;;;24.75;100.00
45541;BME280;31265;49.680;8.608;2023-09-18T11:52:24;99871.31;;;24.83;100.00
45541;BME280;31265;49.680;8.608;2023-09-18T11:54:55;99870.38;;;25.07;100.00
45541;BME280;31265;49.680;8.608;2023-09-18T11:57:24;99869.88;;;25.53;100.00
45541;BME280;31265;49.680;8.608;2023-09-18T11:59:54;99869.66;;;25.81;100.00
45541;BME280;31265;49.680;8.608;2023-09-18T12:02:27;99869.13;;;25.89;100.00
45541;BME280;31265;49.680;8.608;2023-09-18T12:05:10;99875.00;;;26.01;100.00
45541;BME280;31265;49.680;8.608;2023-09-18T12:07:40;99874.00;;;24.77;100.00
45541;BME280;31265;49.680;8.608;2023-09-18T12:10:14;99873.16;;;24.71;100.00
45541;BME280;31265;49.680;8.608;2023-09-18T12:12:44;99874.66;;;24.43;100.00
45541;BME280;31265;49.680;8.608;2023-09-18T12:15:17;99880.88;;;24.08;100.00
45541;BME280;31265;49.680;8.608;2023-09-18T12:17:47;99884.41;;;24.36;100.00
45541;BME280;31265;49.680;8.608;2023-09-18T12:20:15;99879.75;;;23.91;100.00
45541;BME280;31265;49.680;8.608;2023-09-18T12:22:47;99884.78;;;24.22;100.00
45541;BME280;31265;49.680;8.608;2023-09-18T12:25:16;99873.56;;;23.98;100.00
45541;BME280;31265;49.680;8.608;2023-09-18T12:27:45;99883.81;;;24.12;100.00
45541;BME280;31265;49.680;8.608;2023-09-18T12:30:15;99883.03;;;24.09;100.00
45541;BME280;31265;49.680;8.608;2023-09-18T12:32:49;99877.47;;;24.13;100.00
45541;BME280;31265;49.680;8.608;2023-09-18T12:35:17;99879.22;;;23.98;100.00
45541;BME280;31265;49.680;8.608;2023-09-18T12:37:46;99885.00;;;24.02;100.00
45541;BME280;31265;49.680;8.608;2023-09-18T12:40:23;99877.31;;;24.07;100.00
45541;BME280;31265;49.680;8.608;2023-09-18T12:42:51;99882.47;;;24.15;100.00
45541;BME280;31265;49.680;8.608;2023-09-18T12:45:22;99889.16;;;24.28;100.00
45541;BME280;31265;49.680;8.608;2023-09-18T12:47:51;99890.69;;;24.33;100.00
45541;BME280;31265;49.680;8.608;2023-09-18T12:50:20;99892.25;;;24.10;100.00
45541;BME280;31265;49.680;8.608;2023-09-18T12:52:48;99885.81;;;24.07;100.00
45541;BME280;31265;49.680;8.608;2023-09-18T12:55:21;99884.16;;;23.98;100.00
45541;BME280;31265;49.680;8.608;2023-09-18T12:57:51;99871.09;;;24.13;100.00
45541;BME280;31265;49.680;8.608;2023-09-18T13:00:23;99873.06;;;24.06;100.00
45541;BME280;31265;49.680;8.608;2023-09-18T13:02:54;99869.94;;;23.94;100.00
45541;BME280;31265;49.680;8.608;2023-09-18T13:05:24;99862.94;;;24.27;100.00
45541;BME280;31265;49.680;8.608;2023-09-18T13:07:54;99862.06;;;24.20;100.00
45541;BME280;31265;49.680;8.608;2023-09-18T13:10:23;99863.03;;;24.31;100.00